createdAt,value
2022-08-11T12:14:38.481Z,96937.38
2022-08-11T12:17:06.487Z,96906.94
2022-08-11T12:19:35.658Z,96893.22
2022-08-11T12:22:22.925Z,96886.91
2022-08-11T12:25:50.057Z,96973.38
2022-08-11T12:28:46.195Z,96881.13
2022-08-11T12:31:13.839Z,96879.84
2022-08-11T12:33:44.688Z,96802.59
2022-08-11T12:36:17.091Z,96895.00
2022-08-11T12:38:50.315Z,96962.22
2022-08-11T12:41:40.911Z,96963.16
2022-08-11T12:44:29.749Z,96907.13
2022-08-11T12:47:01.382Z,96785.22
2022-08-11T12:49:51.289Z,96957.03
2022-08-11T12:52:29.324Z,96894.16
2022-08-11T12:55:04.080Z,96856.13
2022-08-11T12:57:55.929Z,96909.00
2022-08-11T13:00:44.666Z,96897.56
2022-08-11T13:03:32.542Z,96840.25
2022-08-11T13:06:05.372Z,96787.31
2022-08-11T13:08:36.932Z,96884.63
2022-08-11T13:11:56.154Z,96864.59
2022-08-11T13:14:15.577Z,96759.81
2022-08-11T13:17:04.347Z,96858.94
2022-08-11T13:19:32.811Z,96882.69
2022-08-11T13:22:02.489Z,96877.56
2022-08-11T13:24:34.207Z,96819.34
2022-08-11T13:27:05.039Z,96899.06
2022-08-11T13:29:32.781Z,96907.50
2022-08-11T13:32:00.485Z,96848.47
2022-08-11T13:34:32.071Z,96852.16
2022-08-11T13:37:04.330Z,96866.53
2022-08-11T13:39:33.676Z,96748.81
2022-08-11T13:42:03.814Z,96829.44
2022-08-11T13:44:36.682Z,96871.56
2022-08-11T13:47:06.869Z,96858.66
2022-08-11T13:49:39.831Z,96869.47
2022-08-11T13:52:13.195Z,96816.69
2022-08-11T13:54:41.769Z,96903.16
2022-08-11T13:57:38.559Z,96787.06
2022-08-11T14:00:23.522Z,96844.00
2022-08-11T14:02:57.808Z,96837.63
2022-08-11T14:05:38.145Z,96780.13
2022-08-11T14:08:37.766Z,96916.97
2022-08-11T14:12:21.751Z,96781.13
2022-08-11T14:14:13.772Z,96769.59
2022-08-11T14:16:44.783Z,96895.22
2022-08-11T14:19:14.637Z,96892.25
2022-08-11T14:22:07.274Z,96782.28
2022-08-11T14:24:38.947Z,96823.25
2022-08-11T14:27:09.211Z,96955.19
2022-08-11T14:29:58.078Z,96955.66
2022-08-11T14:32:26.874Z,96800.94
2022-08-11T14:34:55.971Z,96838.59
2022-08-11T14:37:25.722Z,96829.63
2022-08-11T14:39:58.221Z,96882.47
2022-08-11T14:42:48.638Z,96891.59
2022-08-11T14:45:55.533Z,96886.66
2022-08-11T14:48:24.452Z,96909.97
2022-08-11T14:50:52.918Z,96899.03
2022-08-11T14:53:22.711Z,96866.22
2022-08-11T14:56:09.931Z,96846.84
2022-08-11T14:58:43.226Z,96863.00
2022-08-11T15:01:30.538Z,96814.66
2022-08-11T15:04:22.410Z,96928.22
2022-08-11T15:06:48.714Z,96795.78
2022-08-11T15:09:16.298Z,96910.31
2022-08-11T15:12:03.597Z,96918.75
2022-08-11T15:14:49.950Z,96899.78
2022-08-11T15:17:24.095Z,96930.00
2022-08-11T15:20:23.522Z,96866.16
2022-08-11T15:23:16.193Z,96852.75
2022-08-11T15:25:46.431Z,96865.69
2022-08-11T15:28:38.546Z,96853.06
2022-08-11T15:31:24.678Z,96915.50
2022-08-11T15:34:18.707Z,96809.84
2022-08-11T15:37:07.257Z,96847.53
2022-08-11T15:40:32.143Z,96976.19
2022-08-11T15:43:53.439Z,96918.97
2022-08-11T15:46:29.604Z,96944.31
2022-08-11T15:49:06.521Z,96846.41
2022-08-11T15:51:42.943Z,96856.81
2022-08-11T15:54:25.519Z,96952.28
2022-08-11T15:56:55.611Z,96843.50
2022-08-11T15:59:44.299Z,96858.44
2022-08-11T16:02:34.398Z,96964.03
2022-08-11T16:05:06.645Z,96855.47
2022-08-11T16:07:40.780Z,96860.44
2022-08-11T16:10:24.922Z,96945.19
2022-08-11T16:13:05.221Z,96949.19
2022-08-11T16:16:06.566Z,96890.22
2022-08-11T16:18:42.201Z,96926.72
2022-08-11T16:21:33.716Z,96916.59
2022-08-11T16:24:06.854Z,96922.22
2022-08-11T16:27:07.471Z,96798.25
2022-08-11T16:29:30.280Z,96869.38
2022-08-11T16:32:17.095Z,96936.50
2022-08-11T16:35:05.373Z,96958.41
2022-08-11T16:37:53.438Z,96976.00
2022-08-11T16:40:22.855Z,96828.41
2022-08-11T16:43:11.816Z,96912.47
2022-08-11T16:45:59.629Z,96972.13
2022-08-11T16:48:37.345Z,96907.81
2022-08-11T16:51:08.133Z,96903.81
2022-08-11T16:53:59.957Z,96854.78
2022-08-11T16:56:41.954Z,96899.34
2022-08-11T16:59:18.230Z,96923.06
2022-08-11T17:01:59.992Z,96832.06
2022-08-11T17:05:30.367Z,96989.09
2022-08-11T17:08:20.463Z,96845.31
2022-08-11T17:11:22.398Z,96844.97
2022-08-11T17:13:58.916Z,96963.03
2022-08-11T17:16:36.446Z,96831.88
2022-08-11T17:20:41.298Z,96999.38
2022-08-11T17:22:29.788Z,97007.31
2022-08-11T17:25:00.006Z,96883.69
2022-08-11T17:27:28.490Z,96979.09
2022-08-11T17:29:59.912Z,97005.16
2022-08-11T17:33:09.942Z,96908.94
2022-08-11T17:35:41.023Z,97018.25
2022-08-11T17:38:23.111Z,96917.88
2022-08-11T17:41:22.756Z,96904.59
2022-08-11T17:44:12.419Z,96878.38
2022-08-11T17:47:05.139Z,96851.31
2022-08-11T17:49:37.916Z,96924.47
2022-08-11T17:52:26.390Z,96904.47
2022-08-11T17:55:14.577Z,96873.78
2022-08-11T17:58:01.378Z,96904.78
2022-08-11T18:00:29.910Z,97027.94
2022-08-11T18:03:19.059Z,96922.00
2022-08-11T18:05:49.367Z,96906.09
2022-08-11T18:08:39.770Z,97035.44
2022-08-11T18:12:06.426Z,96934.34
2022-08-11T18:14:34.955Z,97022.56
2022-08-11T18:17:22.070Z,96941.84
2022-08-11T18:20:08.292Z,96952.06
2022-08-11T18:23:01.676Z,96966.66
2022-08-11T18:25:54.317Z,96903.31
2022-08-11T18:28:44.887Z,96955.19
2022-08-11T18:31:34.091Z,97036.09
2022-08-11T18:34:28.653Z,97004.19
2022-08-11T18:37:30.599Z,96901.56
2022-08-11T18:40:24.822Z,97007.06
2022-08-11T18:43:14.186Z,97054.13
2022-08-11T18:46:07.153Z,96963.47
2022-08-11T18:48:58.599Z,97054.94
2022-08-11T18:51:46.687Z,96917.97
2022-08-11T18:54:34.724Z,97030.69
2022-08-11T18:57:25.293Z,96943.56
2022-08-11T19:00:13.534Z,97038.47
2022-08-11T19:03:02.321Z,97037.66
2022-08-11T19:06:31.772Z,97024.63
2022-08-11T19:09:01.181Z,97043.53
2022-08-11T19:11:49.888Z,96972.94
2022-08-11T19:14:36.922Z,97045.22
2022-08-11T19:17:43.970Z,96954.13
2022-08-11T19:20:35.159Z,96931.00
2022-08-11T19:23:22.358Z,97000.63
2022-08-11T19:26:08.667Z,97033.13
2022-08-11T19:28:58.290Z,97033.34
2022-08-11T19:31:45.547Z,96963.16
2022-08-11T19:34:37.091Z,96911.06
2022-08-11T19:37:25.750Z,97028.75
2022-08-11T19:40:14.241Z,97021.75
2022-08-11T19:43:01.924Z,97024.00
2022-08-11T19:45:52.256Z,97063.72
2022-08-11T19:48:44.638Z,96971.94
2022-08-11T19:51:32.305Z,96964.56
2022-08-11T19:54:19.703Z,97101.00
2022-08-11T19:57:08.375Z,97053.09
2022-08-11T19:59:55.026Z,96943.56
2022-08-11T20:02:41.557Z,96995.75
2022-08-11T20:05:27.964Z,96937.69
2022-08-11T20:08:16.019Z,96935.28
2022-08-11T20:11:06.126Z,97099.63
2022-08-11T20:13:52.719Z,97008.13
2022-08-11T20:16:41.122Z,97025.34
2022-08-11T20:19:54.930Z,96985.44
2022-08-11T20:22:36.566Z,96982.06
2022-08-11T20:25:24.213Z,96965.47
2022-08-11T20:28:12.388Z,97057.91
2022-08-11T20:30:59.667Z,97066.13
2022-08-11T20:33:45.286Z,97045.91
2022-08-11T20:36:33.439Z,97003.03
2022-08-11T20:39:21.172Z,97092.47
2022-08-11T20:42:07.810Z,97009.50
2022-08-11T20:44:55.903Z,97070.63
2022-08-11T20:47:59.225Z,96962.16
2022-08-11T20:50:47.977Z,97056.00
2022-08-11T20:53:39.073Z,97110.69
2022-08-11T20:56:30.100Z,96968.16
2022-08-11T20:59:21.977Z,97011.44
2022-08-11T21:02:10.549Z,97029.94
2022-08-11T21:05:00.220Z,96943.03
2022-08-11T21:11:00.677Z,96958.09
2022-08-11T21:13:51.399Z,97072.22
2022-08-11T21:16:51.213Z,97082.28
2022-08-11T21:20:00.764Z,97130.34
2022-08-11T21:22:59.532Z,97036.44
2022-08-11T21:26:02.021Z,97128.63
2022-08-11T21:28:50.974Z,97064.44
2022-08-11T21:31:38.123Z,97072.72
2022-08-11T21:34:26.741Z,97060.50
2022-08-11T21:37:12.791Z,97048.56
2022-08-11T21:40:00.277Z,97050.09
2022-08-11T21:42:46.990Z,96998.59
2022-08-11T21:45:34.288Z,96963.59
2022-08-11T21:48:20.908Z,97025.31
2022-08-11T21:51:06.450Z,97052.59
2022-08-11T21:53:52.768Z,97085.75
2022-08-11T21:56:40.460Z,97073.09
2022-08-11T21:59:27.234Z,97075.47
2022-08-11T22:02:13.342Z,97005.72
2022-08-11T22:05:00.536Z,97092.44
2022-08-11T22:07:47.164Z,97055.88
2022-08-11T22:10:41.855Z,97036.66
2022-08-11T22:13:30.741Z,97133.19
2022-08-11T22:16:18.314Z,97061.78
2022-08-11T22:19:05.928Z,97116.66
2022-08-11T22:22:03.294Z,97074.47
2022-08-11T22:24:52.047Z,97011.66
2022-08-11T22:27:40.051Z,97064.19
2022-08-11T22:30:27.831Z,97007.13
2022-08-11T22:33:16.460Z,97002.72
2022-08-11T22:36:07.598Z,96999.75
2022-08-11T22:38:55.887Z,97033.13
2022-08-11T22:41:42.288Z,97142.34
2022-08-11T22:44:28.892Z,97024.50
2022-08-11T22:47:18.318Z,97150.66
2022-08-11T22:50:08.184Z,97161.09
2022-08-11T22:52:54.848Z,97063.69
2022-08-11T22:55:43.038Z,97049.22
2022-08-11T22:58:29.209Z,97145.06
2022-08-11T23:01:15.419Z,97061.19
2022-08-11T23:04:01.725Z,97112.28
2022-08-11T23:06:48.859Z,97138.38
2022-08-11T23:09:36.169Z,97139.78
2022-08-11T23:12:22.340Z,97136.22
2022-08-11T23:15:09.037Z,97027.94
2022-08-11T23:17:55.776Z,97139.97
2022-08-11T23:20:43.975Z,97074.94
2022-08-11T23:23:32.590Z,97038.59
2022-08-11T23:26:20.770Z,97070.91
2022-08-11T23:29:06.570Z,97143.19
2022-08-11T23:31:55.226Z,97002.53
2022-08-11T23:35:04.343Z,97063.63
2022-08-11T23:37:51.675Z,97068.72
2022-08-11T23:40:37.306Z,97090.59
2022-08-11T23:43:23.707Z,97055.81
2022-08-11T23:46:09.219Z,97061.34
2022-08-11T23:48:57.981Z,97006.09
2022-08-11T23:51:44.450Z,97055.47
2022-08-11T23:54:36.607Z,96958.69
2022-08-11T23:57:23.924Z,97036.09
